• Join FlightAware (Why Join?)
  • Login
  • US Flag 
07:30AM EDT


 

Airport Tracker/Info


-or-


 

Live Flight TrackerFlight Track Log ✈ N790XJ ✈ 30-Apr-2013 ✈ KCLT - KOPF

Flight Track Log - Related Links

Times and Time Zones

All times are in EDT time to prevent confusion due to time zone crossing. See the N790XJ flight status page for this flight to view local times or setup timezone preferences in your user account.

Time Position Orientation Groundspeed Altitude Reporting Facility
EDT Latitude Longitude Course Direction KTS MPH feet Rate Location/Type
04:28PM 35.1553 -80.9344 176° South 237 273 4,200  Level Atlanta Center
04:29PM 35.0819 -80.9219 172° South 260 299 8,700 3,540 Climbing Atlanta Center
04:30PM 34.9969 -80.9481 194° South 291 335 11,300 1,740 Climbing Atlanta Center
04:31PM 34.9061 -80.9817 197° South 335 386 12,200 1,680 Climbing Atlanta Center
04:32PM 34.8108 -81.0156 196° South 351 404 14,700 2,460 Climbing Atlanta Center
04:33PM 34.7117 -81.0544 198° South 363 418 17,200 2,100 Climbing Atlanta Center
04:34PM 34.6081 -81.0914 196° South 382 440 19,300 1,920 Climbing Jacksonville Center
04:35PM 34.5000 -81.1214 193° South 387 445 21,400 2,220 Climbing Jacksonville Center
04:36PM 34.3897 -81.1464 191° South 405 466 23,800 2,460 Climbing Jacksonville Center
04:37PM 34.2650 -81.1714 189° South 418 481 26,400 2,400 Climbing Jacksonville Center
04:38PM 34.1442 -81.1989 191° South 423 487 28,600 2,280 Climbing Jacksonville Center
04:39PM 34.0258 -81.2264 191° South 437 503 31,000 1,680 Climbing Jacksonville Center
04:40PM 33.8989 -81.2561 191° South 449 517 32,000 1,080 Climbing Jacksonville Center
04:41PM 33.7614 -81.2861 190° South 478 550 33,200 1,440 Climbing Jacksonville Center
04:42PM 33.6200 -81.3211 192° South 500 575 34,900 1,260 Climbing Jacksonville Center
04:43PM 33.4889 -81.3508 191° South 500 575 35,800 1,500 Climbing Jacksonville Center
04:44PM 33.3514 -81.3783 189° South 508 585 37,900 1,800 Climbing Jacksonville Center
04:45PM 33.2453 -81.4022 191° South 503 579 39,500 1,920 Climbing Jacksonville Center
04:46PM 33.0872 -81.4422 192° South 497 572 41,800 1,620 Climbing Jacksonville Center
04:47PM 32.9625 -81.4914 198° South 490 564 42,800 600 Climbing Jacksonville Center
04:48PM 32.8400 -81.5450 200° South 477 549 43,000 60 Climbing Jacksonville Center
04:49PM 32.7111 -81.6014 200° South 482 555 43,000  Level Jacksonville Center
04:50PM 32.5864 -81.6597 202° Southwest 495 570 43,000  Level Jacksonville Center
04:51PM 32.4556 -81.7181 201° Southwest 495 570 43,000  Level Jacksonville Center
04:52PM 32.3369 -81.7714 201° Southwest 507 583 43,000  Level Jacksonville Center
04:53PM 32.1956 -81.8319 200° South 502 578 43,000  Level Jacksonville Center
04:54PM 32.0789 -81.8825 200° South 502 578 43,000  Level Jacksonville Center
04:55PM 31.9394 -81.9428 200° South 497 572 43,000  Level Jacksonville Center
04:56PM 31.8125 -81.9953 199° South 486 559 43,000  Level Jacksonville Center
04:57PM 31.6981 -82.0478 201° Southwest 486 559 43,000  Level Jacksonville Center
04:58PM 31.5711 -82.1000 199° South 486 559 43,000 -60 Level Jacksonville Center
04:59PM 31.4442 -82.1619 203° Southwest 492 566 42,900  Descending Jacksonville Center
05:00PM 31.3169 -82.2117 198° South 492 566 43,000  Climbing Jacksonville Center
05:01PM 31.1919 -82.2636 200° South 487 560 43,000  Level Jacksonville Center
05:02PM 31.0669 -82.3178 200° South 487 560 43,000 -60 Level Jacksonville Center
05:03PM 30.9397 -82.3719 200° South 487 560 42,900  Descending Jacksonville Center
05:04PM 30.8147 -82.4258 200° South 487 560 43,000  Climbing Jacksonville Center
05:05PM 30.6917 -82.4769 200° South 487 560 43,000  Level Jacksonville Center
05:06PM 30.5644 -82.5283 199° South 487 560 43,000  Level Jacksonville Center
05:07PM 30.4331 -82.5528 189° South 487 560 43,000  Level Jacksonville Center
05:08PM 30.2931 -82.5414 176° South 487 560 43,000  Level Jacksonville Center
05:09PM 30.1386 -82.5275 176° South 501 577 43,000  Level Jacksonville Center
05:10PM 30.0050 -82.5111 174° South 501 577 43,000 -60 Level Jacksonville Center
05:11PM 29.8650 -82.5022 177° South 496 571 42,900  Descending Jacksonville Center
05:12PM 29.7314 -82.4908 176° South 496 571 43,000  Climbing Jacksonville Center
05:13PM 29.5956 -82.4817 177° South 496 571 43,000  Level Jacksonville Center
05:14PM 29.4578 -82.4703 176° South 496 571 43,000  Level Jacksonville Center
05:15PM 29.3222 -82.4614 177° South 496 571 43,000 -60 Level Jacksonville Center
05:16PM 29.1989 -82.4550 177° South 496 571 42,900  Descending Jacksonville Center
05:17PM 29.0633 -82.4458 177° South 496 571 43,000  Climbing Jacksonville Center
05:18PM 28.9297 -82.4536 183° South 496 571 43,000  Level Jacksonville Center
05:19PM 28.7983 -82.4636 184° South 490 564 43,000  Level Jacksonville Center
05:20PM 28.6772 -82.4714 183° South 467 537 43,000  Level Jacksonville Center
05:21PM 28.5542 -82.4789 183° South 451 519 43,000  Level Jacksonville Center
05:22PM 28.4289 -82.4867 183° South 451 519 43,000  Level Jacksonville Center
05:24PM 28.2128 -82.4986 183° South 452 520 43,000  Level Miami Center
05:25PM 28.0831 -82.5064 183° South 465 535 43,000  Level Miami Center
05:26PM 27.9600 -82.5094 181° South 460 529 43,000  Level Miami Center
05:27PM 27.8339 -82.4797 168° South 454 522 43,000 -540 Level Miami Center
05:28PM 27.7158 -82.5117 193° South 449 517 42,000 -1,500 Descending Miami Center
05:29PM 27.6183 -82.5536 201° Southwest 429 494 40,000 -2,040 Descending Miami Center
05:30PM 27.5017 -82.5992 199° South 434 499 38,000 -2,220 Descending Miami Center
05:31PM 27.3722 -82.6558 201° Southwest 444 511 35,600 -2,280 Descending Miami Center
05:32PM 27.2511 -82.7081 201° Southwest 461 531 33,500 -2,160 Descending Miami Center
05:33PM 27.1317 -82.7675 204° Southwest 461 531 31,300 -2,220 Descending Miami Center
05:34PM 27.0192 -82.8175 202° Southwest 456 525 29,200 -2,100 Descending Miami Center
05:35PM 26.9147 -82.8681 203° Southwest 441 507 27,100 -1,260 Descending Miami Center
05:36PM 26.8147 -82.9164 203° Southwest 412 474 26,700 -780 Descending Miami Center
05:37PM 26.7172 -82.9556 200° South 390 449 25,600 -900 Descending Miami Center
05:38PM 26.6194 -82.8925 150° Southeast 356 410 25,000 -360 Descending Miami Center
05:39PM 26.5683 -82.7714 115° Southeast 353 406 25,000  Level Miami Center
05:40PM 26.5167 -82.6528 116° Southeast 384 442 25,000 -540 Level Miami Center
05:41PM 26.4672 -82.5275 114° Southeast 417 480 24,000 -540 Descending Miami Center
05:42PM 26.4156 -82.4069 116° Southeast 422 486 24,000  Level Miami Center
05:43PM 26.3678 -82.2933 115° Southeast 410 472 24,000 -360 Level Miami Center
05:44PM 26.3200 -82.1708 113° Southeast 410 472 23,300 -900 Descending Miami Center
05:45PM 26.2719 -82.0553 115° Southeast 422 486 22,300 -1,020 Descending Miami Center
05:46PM 26.2156 -81.9392 118° Southeast 422 486 21,300 -960 Descending Miami Center
05:47PM 26.1669 -81.8353 118° Southeast 422 486 20,400 -960 Descending Miami Center
05:48PM 26.1100 -81.7244 120° Southeast 417 480 19,400 -720 Descending Miami Center
05:49PM 26.0553 -81.6158 119° Southeast 410 472 19,000 -240 Descending Miami Center
05:50PM 26.0022 -81.5075 119° Southeast 410 472 19,000 -360 Level Miami Center
05:51PM 25.9556 -81.3969 115° Southeast 404 465 18,300 -1,140 Descending Miami Center
05:52PM 25.9111 -81.2844 114° Southeast 399 459 16,800 -2,100 Descending Miami Center
05:53PM 25.8939 -81.1592 99° East 377 434 14,200 -2,820 Descending Miami Center
05:53PM 25.8900 -81.0761 93° East 376 433 12,100 -2,700 Descending Miami Center
05:54PM 25.8950 -81.0531 76° East 372 428 11,500 -2,100 Descending Miami Center
05:54PM 25.8867 -80.9719 96° East 309 356 10,000 -1,680 Descending Miami Center
05:55PM 25.8872 -80.9536 88° East 348 400 9,800 -1,740 Descending Miami Center
05:55PM 25.8764 -80.8908 101° East 304 350 8,400 -2,040 Descending Miami Center
05:56PM 25.8836 -80.8633 74° East 316 364 7,800 -1,980 Descending Miami Center
05:57PM 25.8856 -80.7850 88° East 298 343 6,200 -1,920 Descending Miami Center
05:58PM 25.8881 -80.6972 88° East 286 329 4,500 -1,680 Descending Miami Center
05:59PM 25.8944 -80.6119 85° East 265 305 2,800 -1,560 Descending Miami Center
05:59PM 25.8961 -80.5406 88° East 258 297 1,600 -1,020 Descending Miami Center
06:00PM 25.9031 -80.5175 71° East 265 305 1,600  Level Miami Center
06:00PM 25.9000 -80.4692 94° East 202 232 1,600  Level Miami Center
06:01PM 25.9047 -80.4508 74° East 237 273 1,600  Level Miami Center
06:01PM 25.9036 -80.4044 92° East 219 252 1,600  Level Miami Center
06:02PM 25.9061 -80.3883 80° East 218 251 1,600 -540 Level Miami Center
06:03PM 25.9072 -80.3444 88° East 146 168 1,000 -720 Descending Miami Center
06:05PM 25.9074 -80.2782 10° North  Level Estimated
06:12PM 25.9074 -80.2782 10° North  Level Estimated